createdAt,value
2019-05-13T00:01:00.785Z,79.41
2019-05-13T00:02:04.317Z,79.69
2019-05-13T00:03:03.896Z,80.07
2019-05-13T00:04:04.861Z,80.45
2019-05-13T00:05:06.260Z,80.74
2019-05-13T00:06:07.642Z,81.02
2019-05-13T00:07:09.030Z,80.74
2019-05-13T00:08:10.415Z,81.02
2019-05-13T00:09:13.936Z,81.12
2019-05-13T00:10:14.621Z,81.12
2019-05-13T00:11:14.507Z,81.12
2019-05-13T00:12:15.891Z,81.40
2019-05-13T00:13:17.284Z,81.30
2019-05-13T00:14:18.668Z,81.87
2019-05-13T00:15:20.049Z,81.97
2019-05-13T00:16:23.363Z,81.68
2019-05-13T00:17:23.719Z,82.26
2019-05-13T00:18:24.130Z,81.78
2019-05-13T00:19:25.512Z,82.82
2019-05-13T00:20:26.899Z,82.45
2019-05-13T00:21:28.278Z,82.54
2019-05-13T00:22:29.668Z,82.35
2019-05-13T00:23:31.051Z,82.73
2019-05-13T00:24:33.876Z,82.35
2019-05-13T00:25:34.105Z,83.11
2019-05-13T00:26:35.123Z,83.11
2019-05-13T00:27:36.514Z,83.01
2019-05-13T00:28:37.904Z,83.11
2019-05-13T00:29:39.284Z,83.30
2019-05-13T00:30:40.676Z,83.68
2019-05-13T00:31:43.695Z,83.59
2019-05-13T00:32:44.654Z,83.30
2019-05-13T00:33:44.758Z,83.59
2019-05-13T00:34:46.151Z,84.06
2019-05-13T00:35:47.532Z,84.16
2019-05-13T00:36:48.933Z,84.53
2019-05-13T00:37:50.315Z,84.63
2019-05-13T00:38:53.290Z,84.34
2019-05-13T00:39:54.292Z,84.53
2019-05-13T00:40:54.713Z,84.72
2019-05-13T00:41:55.755Z,84.72
2019-05-13T00:42:57.143Z,84.82
2019-05-13T00:43:58.539Z,84.91
2019-05-13T00:44:59.915Z,84.82
2019-05-13T00:46:03.694Z,85.20
2019-05-13T00:47:04.338Z,85.30
2019-05-13T00:48:04.626Z,85.39
2019-05-13T00:49:05.357Z,85.39
2019-05-13T00:50:06.737Z,86.15
2019-05-13T00:51:08.130Z,86.05
2019-05-13T00:52:09.524Z,86.11
2019-05-13T00:53:13.203Z,86.34
2019-05-13T00:54:13.328Z,86.82
2019-05-13T00:55:14.757Z,86.72
2019-05-13T00:56:14.956Z,86.43
2019-05-13T00:57:16.357Z,86.63
2019-05-13T00:58:17.746Z,86.49
2019-05-13T00:59:19.137Z,86.63
2019-05-13T01:00:20.517Z,86.77
2019-05-13T01:01:24.215Z,87.01
2019-05-13T01:02:24.305Z,87.10
2019-05-13T01:03:27.839Z,87.76
2019-05-13T01:04:25.955Z,88.10
2019-05-13T01:05:27.341Z,88.34
2019-05-13T01:06:28.737Z,88.53
2019-05-13T01:07:30.125Z,88.67
2019-05-13T01:08:33.684Z,88.62
2019-05-13T01:09:34.269Z,88.71
2019-05-13T01:10:34.664Z,88.95
2019-05-13T01:11:35.550Z,89.09
2019-05-13T01:12:36.939Z,89.47
2019-05-13T01:13:38.313Z,89.53
2019-05-13T01:14:39.708Z,90.14
2019-05-13T01:15:41.088Z,90.33
2019-05-13T01:16:44.098Z,90.05
2019-05-13T01:17:44.821Z,90.33
2019-05-13T01:18:45.216Z,90.33
2019-05-13T01:19:46.594Z,91.09
2019-05-13T01:20:47.982Z,90.76
2019-05-13T01:21:49.373Z,91.33
2019-05-13T01:22:50.762Z,91.24
2019-05-13T01:23:54.199Z,91.24
2019-05-13T01:24:54.196Z,91.24
2019-05-13T01:25:54.844Z,91.24
2019-05-13T01:26:56.234Z,91.14
2019-05-13T01:27:57.623Z,91.33
2019-05-13T01:28:59.003Z,91.71
2019-05-13T01:30:00.383Z,91.89
2019-05-13T01:31:03.943Z,91.80
2019-05-13T01:32:04.551Z,91.89
2019-05-13T01:33:04.655Z,92.37
2019-05-13T01:34:05.807Z,92.09
2019-05-13T01:35:07.197Z,92.47
2019-05-13T01:36:08.581Z,92.66
2019-05-13T01:37:09.965Z,92.75
2019-05-13T01:38:13.353Z,92.47
2019-05-13T01:39:13.938Z,92.85
2019-05-13T01:40:14.043Z,92.56
2019-05-13T01:41:15.434Z,93.04
2019-05-13T01:42:16.813Z,92.56
2019-05-13T01:43:18.189Z,93.04
2019-05-13T01:44:19.573Z,93.60
2019-05-13T01:45:20.964Z,93.70
2019-05-13T01:46:24.093Z,93.51
2019-05-13T01:47:24.197Z,94.18
2019-05-13T01:48:25.034Z,94.27
2019-05-13T01:49:26.429Z,94.46
2019-05-13T01:50:27.810Z,94.18
2019-05-13T01:51:29.208Z,94.65
2019-05-13T01:52:30.588Z,95.03
2019-05-13T01:53:33.449Z,94.93
2019-05-13T01:54:33.849Z,95.31
2019-05-13T01:55:34.666Z,95.60
2019-05-13T01:56:36.046Z,95.98
2019-05-13T01:57:37.430Z,96.26
2019-05-13T01:58:38.821Z,96.64
2019-05-13T01:59:40.207Z,96.45
2019-05-13T02:00:44.002Z,96.36
2019-05-13T02:01:44.200Z,97.12
2019-05-13T02:02:44.478Z,97.50
2019-05-13T02:03:45.656Z,97.41
2019-05-13T02:04:47.053Z,97.22
2019-05-13T02:05:48.443Z,97.41
2019-05-13T02:06:49.840Z,98.07
2019-05-13T02:07:59.661Z,97.78
2019-05-13T02:08:54.322Z,97.69
2019-05-13T02:09:53.939Z,97.97
2019-05-13T02:10:55.356Z,98.16
2019-05-13T02:11:56.716Z,98.26
2019-05-13T02:12:58.099Z,98.64
2019-05-13T02:13:59.505Z,98.83
2019-05-13T02:15:00.876Z,99.11
2019-05-13T02:16:03.926Z,99.40
2019-05-13T02:17:04.161Z,99.49
2019-05-13T02:18:04.989Z,99.49
2019-05-13T02:19:06.365Z,99.68
2019-05-13T02:20:07.749Z,99.99
2019-05-13T02:21:09.148Z,99.99
2019-05-13T02:22:10.515Z,99.99
2019-05-13T02:23:14.350Z,99.99
2019-05-13T02:24:14.485Z,99.99
2019-05-13T02:25:14.598Z,99.99
2019-05-13T02:26:15.983Z,99.87
2019-05-13T02:27:17.365Z,99.99
2019-05-13T02:28:18.743Z,99.99
2019-05-13T02:29:20.140Z,99.99
2019-05-13T02:30:21.536Z,99.99
2019-05-13T02:31:31.997Z,99.99
2019-05-13T02:32:24.307Z,99.99
2019-05-13T02:33:25.685Z,99.99
2019-05-13T02:34:27.091Z,99.99
2019-05-13T02:35:28.470Z,99.99
2019-05-13T02:36:32.662Z,99.99
2019-05-13T02:37:34.076Z,99.99
2019-05-13T02:38:35.428Z,99.99
2019-05-13T02:39:33.902Z,99.99
2019-05-13T02:40:35.287Z,99.99
2019-05-13T02:41:36.674Z,99.99
2019-05-13T02:42:38.055Z,99.99
2019-05-13T02:43:42.167Z,99.99
2019-05-13T02:44:43.490Z,99.99
2019-05-13T02:45:42.902Z,99.99
2019-05-13T02:46:44.237Z,99.99
2019-05-13T02:47:44.818Z,99.99
2019-05-13T02:48:46.202Z,99.99
2019-05-13T02:49:47.585Z,99.99
2019-05-13T02:50:52.552Z,99.99
2019-05-13T02:51:54.299Z,99.99
2019-05-13T02:52:53.140Z,99.99
2019-05-13T02:53:53.009Z,99.99
2019-05-13T02:54:54.389Z,99.99
2019-05-13T02:55:55.772Z,99.99
2019-05-13T02:56:57.154Z,99.99
2019-05-13T02:57:58.532Z,99.99
2019-05-13T02:59:03.422Z,99.99
2019-05-13T03:00:04.090Z,99.99
2019-05-13T03:01:03.063Z,99.99
2019-05-13T03:02:04.330Z,99.99
2019-05-13T03:03:05.343Z,99.99
2019-05-13T03:04:06.718Z,99.99
2019-05-13T03:05:08.100Z,99.99
2019-05-13T03:06:09.502Z,99.99
2019-05-13T03:07:12.032Z,99.99
2019-05-13T03:08:12.639Z,99.99
2019-05-13T03:09:13.644Z,99.99
2019-05-13T03:10:15.035Z,99.99
2019-05-13T03:11:16.425Z,99.99
2019-05-13T03:12:17.813Z,99.99
2019-05-13T03:13:19.208Z,99.99
2019-05-13T03:14:23.532Z,99.99
2019-05-13T03:15:23.138Z,99.99
2019-05-13T03:16:23.403Z,99.99
2019-05-13T03:17:24.657Z,99.99
2019-05-13T03:18:26.101Z,99.99
2019-05-13T03:19:27.446Z,99.99
2019-05-13T03:20:28.849Z,99.99
2019-05-13T03:21:32.635Z,99.99
2019-05-13T03:22:32.641Z,99.99
2019-05-13T03:23:33.168Z,99.99
2019-05-13T03:24:34.298Z,99.99
2019-05-13T03:25:35.679Z,99.99
2019-05-13T03:26:37.072Z,99.99
2019-05-13T03:27:38.459Z,99.99
2019-05-13T03:28:43.073Z,99.99
2019-05-13T03:29:43.266Z,99.99
2019-05-13T03:30:45.855Z,99.99
2019-05-13T03:31:46.171Z,99.99
2019-05-13T03:32:53.029Z,99.99
2019-05-13T03:33:47.725Z,99.99
2019-05-13T03:34:47.977Z,99.99
2019-05-13T03:35:54.923Z,99.99
2019-05-13T03:36:55.905Z,99.99
2019-05-13T03:37:52.797Z,99.99
2019-05-13T03:39:04.580Z,99.99
2019-05-13T03:39:54.944Z,99.99
2019-05-13T03:40:56.343Z,99.99
2019-05-13T03:41:57.728Z,99.99
2019-05-13T03:43:02.317Z,99.99
2019-05-13T03:44:02.563Z,99.99
2019-05-13T03:45:03.067Z,99.99
2019-05-13T03:46:03.447Z,99.99
2019-05-13T03:47:04.560Z,99.99
2019-05-13T03:48:05.938Z,99.99
2019-05-13T03:49:07.328Z,99.99
2019-05-13T03:50:08.725Z,99.99
2019-05-13T03:51:12.936Z,99.99
2019-05-13T03:52:13.486Z,99.99
2019-05-13T03:53:13.198Z,99.99
2019-05-13T03:54:14.197Z,99.99
2019-05-13T03:55:15.600Z,99.99
2019-05-13T03:56:16.990Z,99.99
2019-05-13T03:57:18.381Z,99.99
2019-05-13T03:58:23.466Z,99.99
2019-05-13T03:59:22.479Z,99.99
2019-05-13T04:00:23.542Z,99.99
2019-05-13T04:01:23.886Z,99.99
2019-05-13T04:02:25.283Z,99.99
2019-05-13T04:03:26.664Z,99.99
2019-05-13T04:04:28.053Z,99.99
2019-05-13T04:05:33.092Z,99.99
2019-05-13T04:06:32.374Z,99.99
2019-05-13T04:07:32.590Z,99.99
2019-05-13T04:08:33.512Z,99.99
2019-05-13T04:09:36.328Z,99.99
2019-05-13T04:10:36.257Z,99.99
2019-05-13T04:11:37.654Z,99.99
2019-05-13T04:12:42.217Z,99.99
2019-05-13T04:13:42.987Z,99.99
2019-05-13T04:14:42.386Z,99.99
2019-05-13T04:15:43.117Z,99.99
2019-05-13T04:16:44.498Z,99.99
2019-05-13T04:17:45.903Z,99.99
2019-05-13T04:18:47.289Z,99.99
2019-05-13T04:19:48.678Z,99.99
2019-05-13T04:20:52.730Z,99.99
2019-05-13T04:21:52.892Z,99.99
2019-05-13T04:22:53.221Z,99.99
2019-05-13T04:23:54.155Z,99.99
2019-05-13T04:24:55.563Z,99.99
2019-05-13T04:25:56.959Z,99.99
2019-05-13T04:26:58.371Z,99.99
2019-05-13T04:28:02.868Z,99.99
2019-05-13T04:29:03.173Z,99.99
2019-05-13T04:30:03.463Z,99.99
2019-05-13T04:31:04.001Z,99.99
2019-05-13T04:32:05.167Z,99.99
2019-05-13T04:33:06.557Z,99.99
2019-05-13T04:34:07.952Z,99.99
2019-05-13T04:35:12.216Z,99.99
2019-05-13T04:36:13.399Z,99.99
2019-05-13T04:37:13.260Z,99.99
2019-05-13T04:38:13.449Z,99.99
2019-05-13T04:39:14.757Z,99.99
2019-05-13T04:40:16.201Z,99.99
2019-05-13T04:41:17.495Z,99.99
2019-05-13T04:42:18.894Z,99.99
2019-05-13T04:43:23.238Z,99.99
2019-05-13T04:44:24.068Z,99.45
2019-05-13T04:45:24.088Z,99.55
2019-05-13T04:46:24.353Z,99.79
2019-05-13T04:47:25.743Z,98.83
2019-05-13T04:48:27.136Z,98.93
2019-05-13T04:49:28.527Z,98.08
2019-05-13T04:50:32.690Z,97.60
2019-05-13T04:51:32.908Z,98.27
2019-05-13T04:52:33.107Z,97.98
2019-05-13T04:53:34.010Z,97.69
2019-05-13T04:54:35.403Z,97.50
2019-05-13T04:55:36.806Z,97.13
2019-05-13T04:56:38.190Z,96.94
2019-05-13T04:57:42.207Z,96.84
2019-05-13T04:58:42.888Z,96.65
2019-05-13T04:59:44.538Z,96.65
2019-05-13T05:00:49.983Z,96.65
2019-05-13T05:01:48.893Z,96.46
2019-05-13T05:02:50.143Z,95.41
2019-05-13T05:03:47.729Z,95.89
2019-05-13T05:04:52.227Z,95.89
2019-05-13T05:05:52.647Z,95.94
2019-05-13T05:06:52.706Z,95.08
2019-05-13T05:07:53.197Z,95.75
2019-05-13T05:08:54.590Z,95.17
2019-05-13T05:10:16.891Z,94.60
2019-05-13T05:10:57.580Z,94.51
2019-05-13T05:12:01.892Z,94.42
2019-05-13T05:13:02.295Z,93.94
2019-05-13T05:14:02.747Z,94.51
2019-05-13T05:15:03.123Z,94.03
2019-05-13T05:16:04.490Z,93.55
2019-05-13T05:17:05.879Z,93.94
2019-05-13T05:18:07.258Z,93.65
2019-05-13T05:19:08.669Z,93.65
2019-05-13T05:20:11.985Z,93.65
2019-05-13T05:21:11.940Z,93.46
2019-05-13T05:22:13.444Z,93.27
2019-05-13T05:23:14.163Z,92.79
2019-05-13T05:24:15.600Z,92.51
2019-05-13T05:25:17.014Z,92.32
2019-05-13T05:26:18.437Z,92.22
2019-05-13T05:27:21.369Z,91.94
2019-05-13T05:28:21.780Z,92.22
2019-05-13T05:29:22.593Z,92.41
2019-05-13T05:30:23.988Z,92.22
2019-05-13T05:31:25.380Z,92.13
2019-05-13T05:32:26.801Z,92.32
2019-05-13T05:33:28.201Z,91.56
2019-05-13T05:34:31.696Z,91.75
2019-05-13T05:35:32.348Z,91.60
2019-05-13T05:36:32.326Z,91.70
2019-05-13T05:37:33.726Z,90.75
2019-05-13T05:38:35.120Z,90.65
2019-05-13T05:39:36.555Z,90.65
2019-05-13T05:40:37.963Z,89.89
2019-05-13T05:41:39.380Z,90.36
2019-05-13T05:42:41.233Z,89.61
2019-05-13T05:43:45.170Z,89.41
2019-05-13T05:44:43.582Z,89.22
2019-05-13T05:45:44.990Z,89.03
2019-05-13T05:46:46.375Z,88.56
2019-05-13T05:47:51.010Z,88.08
2019-05-13T05:48:50.729Z,87.46
2019-05-13T05:49:51.586Z,87.93
2019-05-13T05:50:52.684Z,87.07
2019-05-13T05:51:54.092Z,86.22
2019-05-13T05:52:55.488Z,84.79
2019-05-13T05:53:56.884Z,83.84
2019-05-13T05:54:58.284Z,83.78
2019-05-13T05:56:02.136Z,83.50
2019-05-13T05:57:01.226Z,83.78
2019-05-13T05:58:02.463Z,83.69
2019-05-13T05:59:03.938Z,83.02
2019-05-13T06:00:05.328Z,82.79
2019-05-13T06:01:06.731Z,83.02
2019-05-13T06:02:08.215Z,82.92
2019-05-13T06:03:13.548Z,82.07
2019-05-13T06:04:12.658Z,82.26
2019-05-13T06:05:12.624Z,81.78
2019-05-13T06:06:13.741Z,81.44
2019-05-13T06:07:15.134Z,80.77
2019-05-13T06:08:17.870Z,79.15
2019-05-13T06:09:17.896Z,77.86
2019-05-13T06:10:19.350Z,76.81
2019-05-13T06:11:22.299Z,76.04
2019-05-13T06:12:22.089Z,75.79
2019-05-13T06:13:23.490Z,74.65
2019-05-13T06:14:24.893Z,75.22
2019-05-13T06:15:26.281Z,73.98
2019-05-13T06:16:27.687Z,73.41
2019-05-13T06:17:29.075Z,71.57
2019-05-13T06:18:32.032Z,68.49
2019-05-13T06:19:32.122Z,65.39
2019-05-13T06:20:33.207Z,62.74
2019-05-13T06:21:34.637Z,61.24
2019-05-13T06:22:36.039Z,59.26
2019-05-13T06:23:37.447Z,56.15
2019-05-13T06:24:38.849Z,52.97
2019-05-13T06:25:42.545Z,49.55
2019-05-13T06:26:42.037Z,46.64
2019-05-13T06:27:43.019Z,44.45
2019-05-13T06:28:44.426Z,42.83
2019-05-13T06:29:48.855Z,41.52
2019-05-13T06:30:47.217Z,40.01
2019-05-13T06:31:48.632Z,37.82
2019-05-13T06:32:52.312Z,36.12
2019-05-13T06:33:51.578Z,35.17
2019-05-13T06:34:52.791Z,34.51
2019-05-13T06:35:54.200Z,33.42
2019-05-13T06:36:55.606Z,33.52
2019-05-13T06:37:57.044Z,33.29
2019-05-13T06:38:58.458Z,34.62
2019-05-13T06:40:01.696Z,35.95
2019-05-13T06:41:06.704Z,36.15
2019-05-13T06:42:03.084Z,35.58
2019-05-13T06:43:04.029Z,34.54
2019-05-13T06:44:05.428Z,35.36
2019-05-13T06:45:06.833Z,36.36
2019-05-13T06:46:08.288Z,38.24
2019-05-13T06:47:11.428Z,40.03
2019-05-13T06:48:11.779Z,42.05
2019-05-13T06:49:12.471Z,41.95
2019-05-13T06:50:13.879Z,42.33
2019-05-13T06:51:15.298Z,41.89
2019-05-13T06:52:16.723Z,41.22
2019-05-13T06:53:18.143Z,41.05
2019-05-13T06:54:21.737Z,40.30
2019-05-13T06:55:21.277Z,38.83
2019-05-13T06:56:22.367Z,39.34
2019-05-13T06:57:23.770Z,39.66
2019-05-13T06:58:25.185Z,37.58
2019-05-13T06:59:26.596Z,35.88
2019-05-13T07:00:28.000Z,34.81
2019-05-13T07:01:29.418Z,34.89
2019-05-13T07:02:32.117Z,34.62
2019-05-13T07:03:32.343Z,34.05
2019-05-13T07:04:33.566Z,33.97
2019-05-13T07:05:34.998Z,32.78
2019-05-13T07:06:36.421Z,30.68
2019-05-13T07:07:37.841Z,28.97
2019-05-13T07:08:41.455Z,27.23
2019-05-13T07:09:42.459Z,26.86
2019-05-13T07:10:42.002Z,25.96
2019-05-13T07:11:43.437Z,26.72
2019-05-13T07:12:44.834Z,26.25
2019-05-13T07:13:46.249Z,25.76
2019-05-13T07:14:47.657Z,26.60
2019-05-13T07:15:49.071Z,26.89
2019-05-13T07:16:52.154Z,27.68
2019-05-13T07:17:52.046Z,26.72
2019-05-13T07:18:53.229Z,26.72
2019-05-13T07:19:54.635Z,26.72
2019-05-13T07:20:56.056Z,26.98
2019-05-13T07:21:57.472Z,26.92
2019-05-13T07:23:01.431Z,26.73
2019-05-13T07:24:02.002Z,25.89
2019-05-13T07:25:02.643Z,25.12
2019-05-13T07:26:03.016Z,25.14
2019-05-13T07:27:04.438Z,24.00
2019-05-13T07:28:05.849Z,23.03
2019-05-13T07:29:07.777Z,22.53
2019-05-13T07:30:11.126Z,22.25
2019-05-13T07:31:11.581Z,22.24
2019-05-13T07:32:11.951Z,21.95
2019-05-13T07:33:12.997Z,21.95
2019-05-13T07:34:14.245Z,23.07
2019-05-13T07:35:15.748Z,23.35
2019-05-13T07:36:17.152Z,24.22
2019-05-13T07:37:18.580Z,24.52
2019-05-13T07:38:22.033Z,24.04
2019-05-13T07:39:22.370Z,23.83
2019-05-13T07:40:22.784Z,23.94
2019-05-13T07:41:35.611Z,24.01
2019-05-13T07:42:25.634Z,24.88
2019-05-13T07:43:27.058Z,25.43
2019-05-13T07:44:28.469Z,25.74
2019-05-13T07:45:31.584Z,25.56
2019-05-13T07:46:32.243Z,25.25
2019-05-13T07:47:32.796Z,26.20
2019-05-13T07:48:34.219Z,27.72
2019-05-13T07:49:35.860Z,28.59
2019-05-13T07:50:51.251Z,28.59
2019-05-13T07:51:38.789Z,28.04
2019-05-13T07:52:41.995Z,27.94
2019-05-13T07:53:42.570Z,27.64
2019-05-13T07:54:42.960Z,28.69
2019-05-13T07:55:44.378Z,28.53
2019-05-13T07:56:46.180Z,28.81
2019-05-13T07:57:47.625Z,27.78
2019-05-13T07:58:49.119Z,27.01
2019-05-13T07:59:52.208Z,26.04
2019-05-13T08:00:52.125Z,26.71
2019-05-13T08:01:53.276Z,26.64
2019-05-13T08:02:55.499Z,25.97
2019-05-13T08:03:56.908Z,25.76
2019-05-13T08:04:58.488Z,26.26
2019-05-13T08:06:01.769Z,25.59
2019-05-13T08:07:01.962Z,25.21
2019-05-13T08:08:02.789Z,25.02
2019-05-13T08:09:04.204Z,25.38
2019-05-13T08:10:05.619Z,26.68
2019-05-13T08:11:07.060Z,28.69
2019-05-13T08:12:10.996Z,30.20
2019-05-13T08:13:11.675Z,32.96
2019-05-13T08:14:12.345Z,34.06
2019-05-13T08:15:12.712Z,36.07
2019-05-13T08:16:14.174Z,37.01
2019-05-13T08:17:15.844Z,36.69
2019-05-13T08:18:16.971Z,37.64
2019-05-13T08:19:18.380Z,38.29
2019-05-13T08:20:21.886Z,40.11
2019-05-13T08:21:21.493Z,40.88
2019-05-13T08:22:22.553Z,41.82
2019-05-13T08:23:23.978Z,41.82
2019-05-13T08:24:25.389Z,42.10
2019-05-13T08:25:26.802Z,42.85
2019-05-13T08:26:28.248Z,43.50
2019-05-13T08:27:30.785Z,43.77
2019-05-13T08:28:32.350Z,44.63
2019-05-13T08:29:32.873Z,45.47
2019-05-13T08:30:33.818Z,46.36
2019-05-13T08:31:35.207Z,46.74
2019-05-13T08:32:36.612Z,46.94
2019-05-13T08:33:38.054Z,46.74
2019-05-13T08:34:41.521Z,46.55
2019-05-13T08:35:41.738Z,46.43
2019-05-13T08:36:42.621Z,46.81
2019-05-13T08:37:43.608Z,46.81
2019-05-13T08:38:45.083Z,47.17
2019-05-13T08:39:46.409Z,47.56
2019-05-13T08:40:47.841Z,48.16
2019-05-13T08:41:51.398Z,48.07
2019-05-13T08:42:52.054Z,46.53
2019-05-13T08:43:52.387Z,45.67
2019-05-13T08:44:53.591Z,45.28
2019-05-13T08:45:55.829Z,43.74
2019-05-13T08:46:56.399Z,42.81
2019-05-13T08:47:57.811Z,42.23
2019-05-13T08:48:59.235Z,43.19
2019-05-13T08:50:03.886Z,43.48
2019-05-13T08:51:03.010Z,43.19
2019-05-13T08:52:03.376Z,43.38
2019-05-13T08:53:04.786Z,43.48
2019-05-13T08:54:06.190Z,42.43
2019-05-13T08:55:07.595Z,41.27
2019-05-13T08:56:09.000Z,41.37
2019-05-13T08:57:11.812Z,41.63
2019-05-13T08:58:12.436Z,42.40
2019-05-13T08:59:13.188Z,42.79
2019-05-13T09:00:14.616Z,43.46
2019-05-13T09:01:16.019Z,42.79
2019-05-13T09:02:17.424Z,42.50
2019-05-13T09:03:21.317Z,42.96
2019-05-13T09:04:22.114Z,42.57
2019-05-13T09:05:21.622Z,42.57
2019-05-13T09:06:23.045Z,43.24
2019-05-13T09:07:24.571Z,44.11
2019-05-13T09:08:25.831Z,44.49
2019-05-13T09:09:27.347Z,45.45
2019-05-13T09:10:28.749Z,43.94
2019-05-13T09:11:31.524Z,40.17
2019-05-13T09:12:35.621Z,39.41
2019-05-13T09:13:33.224Z,38.45
2019-05-13T09:14:34.273Z,39.29
2019-05-13T09:15:35.712Z,39.77
2019-05-13T09:16:37.107Z,40.37
2019-05-13T09:17:38.521Z,40.37
2019-05-13T09:18:42.422Z,40.67
2019-05-13T09:19:41.561Z,40.48
2019-05-13T09:20:42.699Z,40.41
2019-05-13T09:21:44.106Z,40.70
2019-05-13T09:22:45.514Z,40.31
2019-05-13T09:23:46.918Z,39.26
2019-05-13T09:24:48.327Z,38.95
2019-05-13T09:25:51.851Z,38.28
2019-05-13T09:26:52.731Z,37.80
2019-05-13T09:27:52.464Z,37.87
2019-05-13T09:28:53.908Z,38.45
2019-05-13T09:29:55.359Z,38.62
2019-05-13T09:30:56.760Z,39.10
2019-05-13T09:31:58.166Z,39.68
2019-05-13T09:33:01.821Z,40.73
2019-05-13T09:34:01.431Z,40.44
2019-05-13T09:35:03.052Z,38.24
2019-05-13T09:36:03.694Z,37.87
2019-05-13T09:37:05.106Z,38.26
2019-05-13T09:38:06.517Z,37.59
2019-05-13T09:39:07.923Z,38.26
2019-05-13T09:40:11.330Z,38.18
2019-05-13T09:41:12.350Z,38.16
2019-05-13T09:42:12.642Z,38.07
2019-05-13T09:43:13.559Z,37.97
2019-05-13T09:44:14.993Z,38.07
2019-05-13T09:45:16.409Z,37.32
2019-05-13T09:46:17.803Z,34.61
2019-05-13T09:47:21.529Z,32.90
2019-05-13T09:48:22.434Z,31.66
2019-05-13T09:49:23.643Z,32.06
2019-05-13T09:50:31.470Z,31.58
2019-05-13T09:51:24.663Z,31.38
2019-05-13T09:52:26.066Z,31.67
2019-05-13T09:53:27.464Z,31.67
2019-05-13T09:54:32.217Z,31.67
2019-05-13T09:55:32.306Z,30.79
2019-05-13T09:57:32.961Z,31.95
2019-05-13T09:58:34.366Z,32.12
2019-05-13T09:59:35.770Z,32.79
2019-05-13T10:00:37.178Z,33.54
2019-05-13T10:01:38.577Z,34.22
2019-05-13T10:02:42.332Z,35.46
2019-05-13T10:03:53.975Z,36.13
2019-05-13T10:04:43.704Z,36.24
2019-05-13T10:05:44.084Z,36.18
2019-05-13T10:06:45.494Z,35.36
2019-05-13T10:07:46.897Z,34.41
2019-05-13T10:08:48.308Z,34.72
2019-05-13T10:09:51.797Z,34.16
2019-05-13T10:10:52.686Z,33.00
2019-05-13T10:11:52.429Z,31.09
2019-05-13T10:13:08.165Z,29.06
2019-05-13T10:13:55.306Z,28.78
2019-05-13T10:14:56.702Z,28.59
2019-05-13T10:15:58.104Z,28.20
2019-05-13T10:16:59.514Z,28.22
2019-05-13T10:18:01.795Z,28.58
2019-05-13T10:19:02.758Z,28.58
2019-05-13T10:20:03.728Z,29.62
2019-05-13T10:21:05.121Z,30.08
2019-05-13T10:22:06.527Z,29.97
2019-05-13T10:23:07.930Z,29.96
2019-05-13T10:24:12.326Z,31.11
2019-05-13T10:25:12.009Z,31.69
2019-05-13T10:26:13.543Z,32.36
2019-05-13T10:27:13.463Z,32.07
2019-05-13T10:28:14.862Z,33.23
2019-05-13T10:29:16.260Z,33.32
2019-05-13T10:30:17.671Z,33.05
2019-05-13T10:31:19.067Z,32.57
2019-05-13T10:32:21.937Z,31.32
2019-05-13T10:33:22.290Z,29.90
2019-05-13T10:34:23.522Z,30.85
2019-05-13T10:35:24.887Z,30.95
2019-05-13T10:36:26.292Z,30.38
2019-05-13T10:37:27.705Z,29.99
2019-05-13T10:38:29.111Z,30.18
2019-05-13T10:39:30.509Z,29.99
2019-05-13T10:40:32.749Z,31.05
2019-05-13T10:41:33.469Z,31.64
2019-05-13T10:42:34.662Z,31.64
2019-05-13T10:43:40.063Z,31.45
2019-05-13T10:44:37.441Z,31.06
2019-05-13T10:45:41.142Z,30.77
2019-05-13T10:46:42.658Z,30.57
2019-05-13T10:47:42.302Z,31.15
2019-05-13T10:48:42.930Z,30.93
2019-05-13T10:49:44.391Z,31.13
2019-05-13T10:50:45.777Z,30.92
2019-05-13T10:51:47.183Z,30.44
2019-05-13T10:52:48.673Z,30.33
2019-05-13T10:53:52.769Z,30.62
2019-05-13T10:54:52.742Z,30.92
2019-05-13T10:55:52.768Z,31.69
2019-05-13T10:56:59.123Z,31.11
2019-05-13T10:57:55.598Z,30.44
2019-05-13T10:58:56.997Z,29.69
2019-05-13T11:00:00.532Z,29.40
2019-05-13T11:01:02.683Z,29.02
2019-05-13T11:02:02.258Z,28.72
2019-05-13T11:03:02.628Z,28.93
2019-05-13T11:04:04.035Z,30.18
2019-05-13T11:05:05.486Z,28.64
2019-05-13T11:06:06.901Z,27.40
2019-05-13T11:07:08.307Z,28.56
2019-05-13T11:08:09.717Z,27.60
2019-05-13T11:09:12.945Z,28.09
2019-05-13T11:10:13.265Z,28.49
2019-05-13T11:11:13.921Z,28.67
2019-05-13T11:12:15.359Z,27.61
2019-05-13T11:13:16.811Z,27.50
2019-05-13T11:14:18.215Z,28.36
2019-05-13T11:15:19.620Z,27.95
2019-05-13T11:16:22.530Z,28.15
2019-05-13T11:17:30.329Z,27.11
2019-05-13T11:18:24.462Z,26.07
2019-05-13T11:19:25.240Z,25.71
2019-05-13T11:20:26.676Z,25.55
2019-05-13T11:21:28.060Z,24.43
2019-05-13T11:22:29.522Z,23.39
2019-05-13T11:23:32.197Z,23.21
2019-05-13T11:24:32.704Z,22.64
2019-05-13T11:25:33.784Z,22.26
2019-05-13T11:26:36.369Z,21.67
2019-05-13T11:27:36.564Z,21.64
2019-05-13T11:28:37.964Z,21.71
2019-05-13T11:29:41.428Z,22.66
2019-05-13T11:30:42.357Z,23.41
2019-05-13T11:31:42.805Z,24.67
2019-05-13T11:32:43.516Z,25.66
2019-05-13T11:33:45.445Z,24.69
2019-05-13T11:34:46.844Z,24.60
2019-05-13T11:35:48.266Z,24.77
2019-05-13T11:36:52.824Z,24.19
2019-05-13T11:37:52.199Z,24.97
2019-05-13T11:38:53.262Z,24.02
2019-05-13T11:39:53.809Z,23.83
2019-05-13T11:40:55.256Z,23.18
2019-05-13T11:41:56.694Z,22.13
2019-05-13T11:42:58.109Z,21.86
2019-05-13T11:45:00.889Z,21.66
2019-05-13T11:46:02.549Z,21.15
2019-05-13T11:47:03.717Z,21.62
2019-05-13T11:48:05.176Z,21.59
2019-05-13T11:49:06.550Z,21.59
2019-05-13T11:50:07.964Z,22.08
2019-05-13T11:51:12.804Z,21.81
2019-05-13T11:52:11.902Z,21.62
2019-05-13T11:53:31.437Z,21.35
2019-05-13T11:54:13.846Z,20.38
2019-05-13T11:55:14.907Z,20.68
2019-05-13T11:56:16.330Z,20.21
2019-05-13T11:57:17.739Z,19.73
2019-05-13T11:58:19.173Z,20.13
2019-05-13T11:59:22.056Z,19.37
2019-05-13T12:00:21.932Z,19.73
2019-05-13T12:01:24.321Z,20.29
2019-05-13T12:02:25.725Z,20.95
2019-05-13T12:03:27.133Z,21.22
2019-05-13T12:04:28.551Z,21.61
2019-05-13T12:05:32.656Z,22.19
2019-05-13T12:06:33.927Z,21.71
2019-05-13T12:07:33.097Z,22.57
2019-05-13T12:08:34.517Z,22.74
2019-05-13T12:09:35.609Z,23.21
2019-05-13T12:10:37.014Z,23.94
2019-05-13T12:11:38.499Z,25.09
2019-05-13T12:12:43.307Z,26.24
2019-05-13T12:13:42.600Z,26.65
2019-05-13T12:14:56.958Z,26.47
2019-05-13T12:15:49.434Z,25.23
2019-05-13T12:16:45.484Z,25.07
2019-05-13T12:17:46.896Z,24.20
2019-05-13T12:18:48.348Z,24.29
2019-05-13T12:19:49.749Z,24.97
2019-05-13T12:20:53.963Z,25.24
2019-05-13T12:21:54.147Z,25.24
2019-05-13T12:22:53.927Z,25.33
2019-05-13T12:23:55.374Z,26.09
2019-05-13T12:24:56.742Z,26.07
2019-05-13T12:25:58.143Z,26.27
2019-05-13T12:27:03.213Z,26.65
2019-05-13T12:28:03.306Z,26.83
2019-05-13T12:29:02.749Z,26.84
2019-05-13T12:30:03.748Z,26.76
2019-05-13T12:31:05.153Z,27.23
2019-05-13T12:32:06.569Z,26.75
2019-05-13T12:33:07.967Z,26.46
2019-05-13T12:34:12.707Z,26.54
2019-05-13T12:35:13.347Z,26.81
2019-05-13T12:36:17.760Z,28.34
2019-05-13T12:37:13.481Z,28.61
2019-05-13T12:38:14.923Z,29.85
2019-05-13T12:39:16.299Z,30.04
2019-05-13T12:40:17.709Z,30.33
2019-05-13T12:41:19.107Z,30.82
2019-05-13T12:42:23.482Z,29.97
2019-05-13T12:43:24.072Z,29.61
2019-05-13T12:44:23.347Z,29.49
2019-05-13T12:45:24.689Z,29.69
2019-05-13T12:46:26.094Z,29.97
2019-05-13T12:47:27.496Z,29.48
2019-05-13T12:48:28.898Z,29.38
2019-05-13T12:49:33.622Z,29.94
2019-05-13T12:50:32.913Z,30.14
2019-05-13T12:51:33.018Z,29.75
2019-05-13T12:52:34.440Z,29.48
2019-05-13T12:53:35.859Z,29.79
2019-05-13T12:54:37.233Z,30.08
2019-05-13T12:55:38.630Z,29.90
2019-05-13T12:56:42.351Z,29.21
2019-05-13T12:57:41.394Z,30.08
2019-05-13T12:58:42.869Z,29.90
2019-05-13T12:59:44.292Z,29.51
2019-05-13T13:00:45.699Z,28.45
2019-05-13T13:01:47.094Z,28.36
2019-05-13T13:03:49.899Z,28.44
2019-05-13T13:05:08.865Z,28.82
2019-05-13T13:05:52.715Z,29.32
2019-05-13T13:06:54.125Z,29.32
2019-05-13T13:08:16.749Z,29.51
2019-05-13T13:08:56.896Z,29.51
2019-05-13T13:09:58.302Z,28.07
2019-05-13T13:10:59.806Z,28.55
2019-05-13T13:12:01.251Z,28.15
2019-05-13T13:13:02.440Z,27.56
2019-05-13T13:14:06.085Z,28.23